FOOL

Libreville

Airport
ICAO code
FOOL
Summary
ICAO Region
AFI
ICAO Territory
Location

Libreville,

Coordinates
0° 27' 21" N , 9° 24' 44" E
Metar
Observation
FOOL 170400Z VRB01KT 7000 SCT010 24/22 Q1013 NOSIG
Station
Libreville
Date/Time
2022-08-17 04:00:00
Wind speed
01 kts
Lowest cloud amount
scattered clouds
Temperature
24°C
Dew point
22°C
Humidity
88%
QNH
1013 hPa
Weather condition
n/a

Libreville Leon M'ba International Airport (IATA: LBV, ICAO: FOOL) is an airport situated in Libreville, Gabon. It is the main international airport in the country.

Runways

Designator Length Width Surface Rops
16/34 3000 45 ASP Yes/Yes

Airport map

Aerial View

SKYbrary Partners:

Safety knowledge contributed by: